createdAt,value
2018-10-09T00:01:04.123Z,101663.28
2018-10-09T00:03:32.732Z,101669.25
2018-10-09T00:06:01.816Z,101662.50
2018-10-09T00:08:30.627Z,101658.65
2018-10-09T00:10:59.261Z,101657.86
2018-10-09T00:13:27.968Z,101662.62
2018-10-09T00:15:56.617Z,101660.84
2018-10-09T00:18:25.222Z,101657.73
2018-10-09T00:20:53.824Z,101661.17
2018-10-09T00:23:22.471Z,101660.80
2018-10-09T00:25:51.111Z,101660.80
2018-10-09T00:28:19.738Z,101658.27
2018-10-09T00:30:48.260Z,101657.48
2018-10-09T00:33:16.978Z,101657.89
2018-10-09T00:35:45.533Z,101652.23
2018-10-09T00:38:14.265Z,101658.52
2018-10-09T00:40:42.920Z,101653.80
2018-10-09T00:43:11.542Z,101647.38
2018-10-09T00:45:40.187Z,101658.20
2018-10-09T00:48:08.808Z,101653.02
2018-10-09T00:50:37.471Z,101653.80
2018-10-09T00:53:06.497Z,101663.62
2018-10-09T00:55:35.253Z,101666.23
2018-10-09T00:58:03.813Z,101665.81
2018-10-09T01:00:32.584Z,101664.48
2018-10-09T01:03:02.039Z,101663.28
2018-10-09T01:05:30.585Z,101668.83
2018-10-09T01:07:59.273Z,101667.09
2018-10-09T01:10:27.860Z,101679.52
2018-10-09T01:12:56.461Z,101686.77
2018-10-09T01:15:25.060Z,101684.20
2018-10-09T01:17:53.623Z,101681.25
2018-10-09T01:20:31.752Z,101683.73
2018-10-09T01:23:01.889Z,101682.75
2018-10-09T01:25:33.754Z,101678.48
2018-10-09T01:28:03.427Z,101675.08
2018-10-09T01:30:34.555Z,101679.30
2018-10-09T01:33:04.559Z,101681.45
2018-10-09T01:35:33.264Z,101682.70
2018-10-09T01:38:02.588Z,101683.98
2018-10-09T01:40:31.131Z,101684.85
2018-10-09T01:42:59.750Z,101680.17
2018-10-09T01:45:28.411Z,101673.30
2018-10-09T01:47:57.160Z,101681.83
2018-10-09T01:50:25.746Z,101672.39
2018-10-09T01:52:54.494Z,101669.81
2018-10-09T01:55:23.079Z,101670.64
2018-10-09T01:57:51.862Z,101666.34
2018-10-09T02:00:21.373Z,101659.88
2018-10-09T02:02:49.961Z,101664.97
2018-10-09T02:05:18.607Z,101668.36
2018-10-09T02:07:47.231Z,101661.08
2018-10-09T02:10:15.802Z,101658.09
2018-10-09T02:12:44.352Z,101651.64
2018-10-09T02:15:12.971Z,101644.36
2018-10-09T02:17:41.702Z,101638.35
2018-10-09T02:20:10.274Z,101631.06
2018-10-09T02:22:38.818Z,101637.98
2018-10-09T02:25:07.529Z,101643.98
2018-10-09T02:27:36.092Z,101640.13
2018-10-09T02:30:05.378Z,101643.07
2018-10-09T02:32:34.293Z,101645.68
2018-10-09T02:35:03.594Z,101643.53
2018-10-09T02:37:32.152Z,101637.91
2018-10-09T02:40:00.832Z,101637.48
2018-10-09T02:42:29.449Z,101636.11
2018-10-09T02:44:58.052Z,101636.98
2018-10-09T02:47:26.840Z,101638.27
2018-10-09T02:49:55.675Z,101637.44
2018-10-09T02:52:24.433Z,101630.53
2018-10-09T02:54:53.161Z,101638.64
2018-10-09T02:57:21.863Z,101639.05
2018-10-09T02:59:50.544Z,101633.00
2018-10-09T03:02:19.156Z,101649.31
2018-10-09T03:04:47.891Z,101647.07
2018-10-09T03:07:16.611Z,101650.08
2018-10-09T03:09:45.273Z,101641.98
2018-10-09T03:12:14.168Z,101631.68
2018-10-09T03:14:42.940Z,101632.55
2018-10-09T03:17:11.647Z,101635.52
2018-10-09T03:19:40.267Z,101633.87
2018-10-09T03:22:09.127Z,101625.72
2018-10-09T03:24:37.787Z,101625.67
2018-10-09T03:27:06.666Z,101623.02
2018-10-09T03:29:35.361Z,101622.74
2018-10-09T03:32:04.030Z,101623.56
2018-10-09T03:34:32.714Z,101626.14
2018-10-09T03:37:01.638Z,101630.39
2018-10-09T03:39:30.249Z,101629.94
2018-10-09T03:41:58.906Z,101629.02
2018-10-09T03:44:27.553Z,101627.28
2018-10-09T03:46:56.275Z,101631.55
2018-10-09T03:49:24.972Z,101633.69
2018-10-09T03:51:53.645Z,101630.76
2018-10-09T03:54:22.209Z,101632.04
2018-10-09T03:56:50.751Z,101632.41
2018-10-09T03:59:19.314Z,101637.55
2018-10-09T04:01:47.909Z,101638.41
2018-10-09T04:04:16.470Z,101631.99
2018-10-09T04:06:45.111Z,101632.77
2018-10-09T04:09:14.847Z,101639.97
2018-10-09T04:11:44.154Z,101643.90
2018-10-09T04:14:12.845Z,101642.62
2018-10-09T04:16:41.504Z,101648.13
2018-10-09T04:19:10.288Z,101645.14
2018-10-09T04:21:38.836Z,101641.34
2018-10-09T04:24:07.409Z,101639.59
2018-10-09T04:26:36.004Z,101643.45
2018-10-09T04:29:04.657Z,101645.61
2018-10-09T04:31:34.131Z,101642.17
2018-10-09T04:34:03.567Z,101641.25
2018-10-09T04:36:32.188Z,101643.36
2018-10-09T04:39:00.951Z,101641.52
2018-10-09T04:41:29.517Z,101642.06
2018-10-09T04:43:58.192Z,101627.09
2018-10-09T04:46:26.869Z,101626.50
2018-10-09T04:48:55.579Z,101632.08
2018-10-09T04:51:24.269Z,101629.87
2018-10-09T04:53:52.927Z,101642.66
2018-10-09T04:56:21.678Z,101640.45
2018-10-09T04:58:50.321Z,101645.62
2018-10-09T05:01:18.974Z,101642.24
2018-10-09T05:03:47.701Z,101644.03
2018-10-09T05:06:16.342Z,101647.09
2018-10-09T05:08:45.148Z,101642.44
2018-10-09T05:11:13.741Z,101644.18
2018-10-09T05:13:42.509Z,101650.27
2018-10-09T05:16:11.336Z,101638.69
2018-10-09T05:18:40.052Z,101639.19
2018-10-09T05:21:08.731Z,101650.77
2018-10-09T05:23:37.800Z,101652.47
2018-10-09T05:26:06.448Z,101653.39
2018-10-09T05:28:35.072Z,101644.05
2018-10-09T05:31:04.338Z,101640.61
2018-10-09T05:33:32.945Z,101640.97
2018-10-09T05:36:02.910Z,101650.77
2018-10-09T05:38:31.785Z,101643.95
2018-10-09T05:41:00.437Z,101645.69
2018-10-09T05:43:29.042Z,101638.78
2018-10-09T05:45:57.708Z,101652.10
2018-10-09T05:48:26.355Z,101656.45
2018-10-09T05:50:55.037Z,101650.45
2018-10-09T05:53:23.787Z,101649.12
2018-10-09T05:55:52.388Z,101656.92
2018-10-09T05:58:21.030Z,101655.17
2018-10-09T06:00:49.725Z,101658.94
2018-10-09T06:03:18.236Z,101663.51
2018-10-09T06:05:46.895Z,101668.18
2018-10-09T06:08:16.379Z,101664.93
2018-10-09T06:10:45.132Z,101660.81
2018-10-09T06:13:13.906Z,101665.16
2018-10-09T06:15:42.689Z,101666.72
2018-10-09T06:18:11.102Z,101678.99
2018-10-09T06:20:39.927Z,101672.72
2018-10-09T06:23:08.636Z,101668.55
2018-10-09T06:25:37.329Z,101672.91
2018-10-09T06:28:06.968Z,101679.40
2018-10-09T06:30:36.080Z,101681.19
2018-10-09T06:33:05.245Z,101685.63
2018-10-09T06:35:34.363Z,101682.45
2018-10-09T06:38:03.944Z,101693.68
2018-10-09T06:40:32.548Z,101701.55
2018-10-09T06:43:01.607Z,101697.44
2018-10-09T06:45:30.293Z,101697.55
2018-10-09T06:47:58.938Z,101703.22
2018-10-09T06:50:27.653Z,101693.86
2018-10-09T06:52:56.486Z,101700.44
2018-10-09T06:55:25.369Z,101696.20
2018-10-09T06:57:54.054Z,101699.64
2018-10-09T07:00:22.819Z,101705.16
2018-10-09T07:02:51.738Z,101710.38
2018-10-09T07:05:20.397Z,101731.45
2018-10-09T07:07:49.216Z,101738.78
2018-10-09T07:10:19.613Z,101745.32
2018-10-09T07:12:48.385Z,101740.73
2018-10-09T07:15:17.052Z,101735.28
2018-10-09T07:17:45.744Z,101742.62
2018-10-09T07:20:14.547Z,101734.97
2018-10-09T07:22:43.277Z,101732.88
2018-10-09T07:25:11.920Z,101734.66
2018-10-09T07:27:40.928Z,101738.61
2018-10-09T07:30:11.298Z,101742.08
2018-10-09T07:32:40.135Z,101743.43
2018-10-09T07:35:09.939Z,101743.07
2018-10-09T07:37:38.796Z,101746.15
2018-10-09T07:40:07.790Z,101745.28
2018-10-09T07:42:36.572Z,101750.34
2018-10-09T07:45:05.268Z,101746.98
2018-10-09T07:47:34.351Z,101749.23
2018-10-09T07:50:03.771Z,101745.91
2018-10-09T07:52:32.641Z,101747.30
2018-10-09T07:55:02.292Z,101753.01
2018-10-09T07:57:31.251Z,101759.95
2018-10-09T08:00:00.182Z,101759.59
2018-10-09T08:02:29.023Z,101762.67
2018-10-09T08:04:58.133Z,101767.47
2018-10-09T08:07:26.845Z,101768.80
2018-10-09T08:09:55.512Z,101766.28
2018-10-09T08:12:24.075Z,101769.29
2018-10-09T08:14:52.687Z,101768.91
2018-10-09T08:17:21.391Z,101762.92
2018-10-09T08:19:50.035Z,101761.66
2018-10-09T08:22:18.835Z,101757.38
2018-10-09T08:24:47.889Z,101759.95
2018-10-09T08:27:16.696Z,101765.15
2018-10-09T08:29:45.695Z,101752.73
2018-10-09T08:32:14.520Z,101752.78
2018-10-09T08:34:43.537Z,101757.57
2018-10-09T08:37:12.392Z,101746.45
2018-10-09T08:39:41.326Z,101745.64
2018-10-09T08:42:10.361Z,101748.69
2018-10-09T08:44:39.036Z,101761.65
2018-10-09T08:47:07.828Z,101760.83
2018-10-09T08:49:37.424Z,101758.70
2018-10-09T08:52:06.543Z,101758.30
2018-10-09T08:54:35.227Z,101772.50
2018-10-09T08:57:04.191Z,101772.10
2018-10-09T08:59:33.377Z,101781.59
2018-10-09T09:02:02.823Z,101769.53
2018-10-09T09:04:32.332Z,101767.44
2018-10-09T09:07:01.020Z,101763.58
2018-10-09T09:09:29.725Z,101773.94
2018-10-09T09:11:58.453Z,101773.09
2018-10-09T09:14:27.123Z,101777.44
2018-10-09T09:16:56.125Z,101782.63
2018-10-09T09:19:24.961Z,101773.15
2018-10-09T09:21:53.853Z,101769.30
2018-10-09T09:24:23.004Z,101765.87
2018-10-09T09:26:52.022Z,101767.60
2018-10-09T09:29:20.842Z,101774.07
2018-10-09T09:31:50.112Z,101775.78
2018-10-09T09:34:19.018Z,101771.48
2018-10-09T09:36:47.702Z,101774.94
2018-10-09T09:39:16.488Z,101771.52
2018-10-09T09:41:45.393Z,101771.09
2018-10-09T09:44:14.353Z,101764.63
2018-10-09T09:46:43.033Z,101760.27
2018-10-09T09:49:12.221Z,101754.22
2018-10-09T09:51:41.371Z,101751.63
2018-10-09T09:54:10.095Z,101747.67
2018-10-09T09:56:38.900Z,101737.27
2018-10-09T09:59:07.820Z,101741.98
2018-10-09T10:01:43.606Z,101738.05
2018-10-09T10:04:13.252Z,101745.36
2018-10-09T10:06:42.731Z,101742.73
2018-10-09T10:09:12.144Z,101744.83
2018-10-09T10:11:41.405Z,101738.31
2018-10-09T10:14:10.391Z,101736.94
2018-10-09T10:16:39.082Z,101732.53
2018-10-09T10:19:08.018Z,101729.03
2018-10-09T10:21:36.595Z,101729.41
2018-10-09T10:24:05.360Z,101735.42
2018-10-09T10:26:34.033Z,101724.16
2018-10-09T10:29:03.555Z,101726.31
2018-10-09T10:31:32.287Z,101728.44
2018-10-09T10:34:02.707Z,101732.77
2018-10-09T10:36:31.682Z,101734.92
2018-10-09T10:39:00.414Z,101729.28
2018-10-09T10:41:29.089Z,101729.61
2018-10-09T10:43:57.796Z,101733.41
2018-10-09T10:46:32.238Z,101730.27
2018-10-09T10:49:05.783Z,101727.12
2018-10-09T10:51:34.932Z,101727.82
2018-10-09T10:54:05.252Z,101724.23
2018-10-09T10:56:34.870Z,101720.22
2018-10-09T10:59:05.219Z,101720.12
2018-10-09T11:01:34.598Z,101716.95
2018-10-09T11:04:04.139Z,101720.36
2018-10-09T11:06:32.932Z,101729.80
2018-10-09T11:09:02.310Z,101724.98
2018-10-09T11:11:31.060Z,101713.62
2018-10-09T11:13:59.760Z,101706.69
2018-10-09T11:16:28.512Z,101712.38
2018-10-09T11:18:57.185Z,101708.05
2018-10-09T11:21:26.006Z,101704.48
2018-10-09T11:23:54.735Z,101696.20
2018-10-09T11:26:23.523Z,101692.62
2018-10-09T11:28:52.232Z,101696.81
2018-10-09T11:31:21.118Z,101698.48
2018-10-09T11:33:49.667Z,101695.16
2018-10-09T11:36:18.467Z,101694.41
2018-10-09T11:38:47.152Z,101686.77
2018-10-09T11:41:16.441Z,101682.87
2018-10-09T11:43:45.452Z,101680.50
2018-10-09T11:46:13.972Z,101673.84
2018-10-09T11:48:42.664Z,101672.33
2018-10-09T11:51:11.631Z,101674.30
2018-10-09T11:53:40.395Z,101672.32
2018-10-09T11:56:09.036Z,101671.78
2018-10-09T11:58:37.874Z,101669.02
2018-10-09T12:01:08.296Z,101671.80
2018-10-09T12:03:37.044Z,101661.17
2018-10-09T12:06:06.039Z,101667.93
2018-10-09T12:08:34.739Z,101663.41
2018-10-09T12:11:03.544Z,101664.47
2018-10-09T12:13:32.291Z,101663.44
2018-10-09T12:16:01.041Z,101660.32
2018-10-09T12:18:29.872Z,101655.05
2018-10-09T12:20:58.650Z,101650.63
2018-10-09T12:23:27.354Z,101637.52
2018-10-09T12:25:56.054Z,101644.09
2018-10-09T12:28:24.755Z,101646.86
2018-10-09T12:30:53.979Z,101639.64
2018-10-09T12:33:22.782Z,101643.20
2018-10-09T12:35:51.983Z,101644.92
2018-10-09T12:38:20.640Z,101646.16
2018-10-09T12:40:49.963Z,101642.88
2018-10-09T12:43:18.842Z,101636.42
2018-10-09T12:45:47.688Z,101637.81
2018-10-09T12:48:16.933Z,101634.02
2018-10-09T12:50:45.758Z,101635.83
2018-10-09T12:53:15.331Z,101630.34
2018-10-09T12:55:44.368Z,101632.21
2018-10-09T12:58:13.050Z,101629.36
2018-10-09T13:00:41.734Z,101622.31
2018-10-09T13:03:10.651Z,101622.94
2018-10-09T13:05:39.337Z,101624.46
2018-10-09T13:08:08.055Z,101624.46
2018-10-09T13:10:36.725Z,101622.18
2018-10-09T13:13:05.453Z,101625.20
2018-10-09T13:15:34.031Z,101621.83
2018-10-09T13:18:02.864Z,101622.08
2018-10-09T13:20:31.616Z,101621.12
2018-10-09T13:23:00.384Z,101625.77
2018-10-09T13:25:28.927Z,101615.67
2018-10-09T13:27:58.136Z,101621.17
2018-10-09T13:30:26.712Z,101607.08
2018-10-09T13:32:55.302Z,101612.38
2018-10-09T13:35:23.983Z,101606.87
2018-10-09T13:37:53.209Z,101604.34
2018-10-09T13:40:21.850Z,101599.31
2018-10-09T13:42:50.681Z,101595.14
2018-10-09T13:45:21.194Z,101591.41
2018-10-09T13:47:49.897Z,101583.34
2018-10-09T13:50:18.600Z,101580.31
2018-10-09T13:52:47.898Z,101580.88
2018-10-09T13:55:16.879Z,101578.30
2018-10-09T13:57:45.915Z,101584.02
2018-10-09T14:00:14.742Z,101573.31
2018-10-09T14:02:43.244Z,101575.94
2018-10-09T14:05:13.429Z,101570.78
2018-10-09T14:07:42.086Z,101569.92
2018-10-09T14:10:11.016Z,101572.03
2018-10-09T14:12:39.568Z,101570.80
2018-10-09T14:15:08.389Z,101568.29
2018-10-09T14:17:40.284Z,101574.80
2018-10-09T14:20:09.612Z,101566.89
2018-10-09T14:22:38.460Z,101571.69
2018-10-09T14:25:08.151Z,101567.91
2018-10-09T14:27:37.197Z,101560.99
2018-10-09T14:30:06.298Z,101564.03
2018-10-09T14:32:35.361Z,101561.06
2018-10-09T14:35:04.966Z,101561.06
2018-10-09T14:37:33.681Z,101562.80
2018-10-09T14:40:02.703Z,101560.69
2018-10-09T14:42:31.549Z,101554.58
2018-10-09T14:45:00.611Z,101559.85
2018-10-09T14:47:29.387Z,101553.39
2018-10-09T14:50:00.870Z,101563.39
2018-10-09T14:52:29.890Z,101560.34
2018-10-09T14:54:58.574Z,101565.97
2018-10-09T14:57:27.387Z,101566.41
2018-10-09T14:59:56.081Z,101573.80
2018-10-09T15:02:25.168Z,101572.42
2018-10-09T15:04:54.430Z,101571.05
2018-10-09T15:07:23.885Z,101580.61
2018-10-09T15:09:52.460Z,101585.00
2018-10-09T15:12:21.148Z,101582.98
2018-10-09T15:14:49.944Z,101576.10
2018-10-09T15:17:18.847Z,101586.94
2018-10-09T15:19:48.782Z,101587.86
2018-10-09T15:22:18.192Z,101584.05
2018-10-09T15:24:46.916Z,101589.34
2018-10-09T15:27:16.319Z,101590.69
2018-10-09T15:29:45.498Z,101591.14
2018-10-09T15:32:14.203Z,101596.41
2018-10-09T15:34:44.017Z,101592.16
2018-10-09T15:37:12.732Z,101593.56
2018-10-09T15:39:41.548Z,101590.63
2018-10-09T15:42:10.296Z,101589.41
2018-10-09T15:44:39.050Z,101586.91
2018-10-09T15:47:08.375Z,101586.06
2018-10-09T15:49:37.385Z,101596.52
2018-10-09T15:52:06.614Z,101603.03
2018-10-09T15:54:35.323Z,101600.92
2018-10-09T15:57:05.213Z,101595.35
2018-10-09T15:59:34.447Z,101597.11
2018-10-09T16:02:03.725Z,101600.58
2018-10-09T16:04:32.671Z,101599.83
2018-10-09T16:07:02.011Z,101598.64
2018-10-09T16:09:30.766Z,101601.74
2018-10-09T16:11:59.555Z,101602.25
2018-10-09T16:14:28.452Z,101598.86
2018-10-09T16:16:57.333Z,101602.86
2018-10-09T16:19:26.019Z,101599.04
2018-10-09T16:21:55.801Z,101603.02
2018-10-09T16:24:24.628Z,101594.47
2018-10-09T16:26:53.454Z,101597.61
2018-10-09T16:29:22.344Z,101603.79
2018-10-09T16:31:51.084Z,101603.86
2018-10-09T16:34:19.875Z,101602.23
2018-10-09T16:36:48.669Z,101603.20
2018-10-09T16:39:18.112Z,101605.47
2018-10-09T16:41:47.560Z,101608.99
2018-10-09T16:44:16.424Z,101605.64
2018-10-09T16:46:45.307Z,101605.73
2018-10-09T16:49:14.483Z,101607.08
2018-10-09T16:51:43.440Z,101609.34
2018-10-09T16:54:15.245Z,101618.03
2018-10-09T16:56:44.087Z,101617.66
2018-10-09T16:59:13.373Z,101610.34
2018-10-09T17:01:42.497Z,101621.67
2018-10-09T17:04:11.368Z,101619.13
2018-10-09T17:06:41.078Z,101623.07
2018-10-09T17:09:11.154Z,101627.91
2018-10-09T17:11:41.382Z,101624.50
2018-10-09T17:14:11.175Z,101623.70
2018-10-09T17:16:40.463Z,101621.16
2018-10-09T17:19:09.704Z,101631.14
2018-10-09T17:21:39.914Z,101630.34
2018-10-09T17:24:09.349Z,101632.55
2018-10-09T17:26:38.249Z,101630.81
2018-10-09T17:29:07.810Z,101629.55
2018-10-09T17:31:36.635Z,101626.13
2018-10-09T17:34:05.401Z,101627.47
2018-10-09T17:36:34.327Z,101635.27
2018-10-09T17:39:05.664Z,101626.67
2018-10-09T17:41:42.621Z,101638.37
2018-10-09T17:44:13.491Z,101638.83
2018-10-09T17:46:53.456Z,101635.88
2018-10-09T17:49:29.997Z,101644.97
2018-10-09T17:51:59.845Z,101637.66
2018-10-09T17:54:28.737Z,101640.72
2018-10-09T17:56:57.614Z,101635.56
2018-10-09T17:59:26.886Z,101640.74
2018-10-09T18:01:57.238Z,101639.47
2018-10-09T18:04:26.185Z,101638.64
2018-10-09T18:06:57.913Z,101639.09
2018-10-09T18:09:30.018Z,101639.09
2018-10-09T18:11:58.681Z,101643.87
2018-10-09T18:14:28.290Z,101639.55
2018-10-09T18:16:57.901Z,101638.25
2018-10-09T18:19:26.684Z,101639.14
2018-10-09T18:21:55.304Z,101637.02
2018-10-09T18:24:30.013Z,101641.35
2018-10-09T18:26:59.804Z,101637.49
2018-10-09T18:29:28.538Z,101634.92
2018-10-09T18:31:57.325Z,101637.11
2018-10-09T18:34:25.978Z,101634.97
2018-10-09T18:36:55.302Z,101632.41
2018-10-09T18:39:24.272Z,101637.15
2018-10-09T18:41:53.247Z,101634.16
2018-10-09T18:44:21.835Z,101638.47
2018-10-09T18:46:50.622Z,101643.23
2018-10-09T18:49:19.298Z,101638.94
2018-10-09T18:51:48.099Z,101643.25
2018-10-09T18:54:16.871Z,101637.64
2018-10-09T18:56:45.597Z,101643.27
2018-10-09T18:59:14.777Z,101636.39
2018-10-09T19:01:43.551Z,101638.13
2018-10-09T19:04:12.556Z,101637.25
2018-10-09T19:06:42.097Z,101645.48
2018-10-09T19:09:13.824Z,101645.49
2018-10-09T19:11:43.961Z,101649.80
2018-10-09T19:14:13.016Z,101646.80
2018-10-09T19:16:43.046Z,101649.84
2018-10-09T19:19:12.229Z,101652.86
2018-10-09T19:21:41.212Z,101648.13
2018-10-09T19:24:10.656Z,101645.97
2018-10-09T19:26:41.570Z,101653.33
2018-10-09T19:29:10.617Z,101656.33
2018-10-09T19:31:39.453Z,101655.06
2018-10-09T19:34:08.923Z,101655.91
2018-10-09T19:36:37.629Z,101654.22
2018-10-09T19:39:09.574Z,101660.25
2018-10-09T19:41:38.436Z,101663.25
2018-10-09T19:44:07.291Z,101662.00
2018-10-09T19:46:36.426Z,101662.86
2018-10-09T19:49:06.139Z,101669.77
2018-10-09T19:51:35.081Z,101669.77
2018-10-09T19:54:05.341Z,101672.34
2018-10-09T19:56:34.812Z,101674.06
2018-10-09T19:59:03.763Z,101679.25
2018-10-09T20:01:32.675Z,101676.23
2018-10-09T20:04:02.381Z,101673.22
2018-10-09T20:06:31.546Z,101671.50
2018-10-09T20:09:00.910Z,101682.25
2018-10-09T20:11:30.243Z,101682.25
2018-10-09T20:13:59.153Z,101680.08
2018-10-09T20:16:27.946Z,101677.50
2018-10-09T20:18:57.558Z,101681.37
2018-10-09T20:21:26.279Z,101685.69
2018-10-09T20:23:55.205Z,101682.67
2018-10-09T20:26:24.222Z,101684.41
2018-10-09T20:28:52.943Z,101684.84
2018-10-09T20:31:21.718Z,101684.42
2018-10-09T20:33:50.440Z,101690.03
2018-10-09T20:36:19.073Z,101692.61
2018-10-09T20:38:48.271Z,101691.34
2018-10-09T20:41:17.195Z,101687.45
2018-10-09T20:43:47.472Z,101690.03
2018-10-09T20:46:16.295Z,101686.14
2018-10-09T20:48:45.131Z,101689.17
2018-10-09T20:51:13.906Z,101684.87
2018-10-09T20:53:42.724Z,101684.47
2018-10-09T20:56:11.522Z,101686.20
2018-10-09T20:58:40.535Z,101683.61
2018-10-09T21:01:09.390Z,101689.61
2018-10-09T21:03:41.187Z,101685.31
2018-10-09T21:06:09.806Z,101682.72
2018-10-09T21:08:38.503Z,101681.02
2018-10-09T21:11:07.572Z,101692.20
2018-10-09T21:13:36.341Z,101685.34
2018-10-09T21:16:05.447Z,101682.75
2018-10-09T21:18:37.844Z,101685.77
2018-10-09T21:21:06.667Z,101684.89
2018-10-09T21:23:35.907Z,101688.36
2018-10-09T21:26:04.792Z,101688.34
2018-10-09T21:28:33.737Z,101684.48
2018-10-09T21:31:02.901Z,101679.73
2018-10-09T21:33:31.926Z,101684.91
2018-10-09T21:36:00.683Z,101681.03
2018-10-09T21:38:29.541Z,101681.02
2018-10-09T21:40:58.564Z,101679.73
2018-10-09T21:43:27.358Z,101675.45
2018-10-09T21:45:56.096Z,101674.56
2018-10-09T21:48:24.803Z,101671.98
2018-10-09T21:50:53.641Z,101673.29
2018-10-09T21:53:22.513Z,101678.02
2018-10-09T21:55:51.432Z,101670.71
2018-10-09T21:58:24.227Z,101676.75
2018-10-09T22:01:13.372Z,101672.86
2018-10-09T22:03:42.857Z,101673.30
2018-10-09T22:06:15.418Z,101674.16
2018-10-09T22:08:52.360Z,101677.16
2018-10-09T22:11:23.082Z,101673.72
2018-10-09T22:13:53.314Z,101678.89
2018-10-09T22:16:28.343Z,101675.03
2018-10-09T22:18:56.933Z,101675.86
2018-10-09T22:21:25.672Z,101681.91
2018-10-09T22:23:54.565Z,101680.19
2018-10-09T22:26:23.268Z,101687.08
2018-10-09T22:28:52.112Z,101681.47
2018-10-09T22:31:20.848Z,101673.27
2018-10-09T22:33:49.834Z,101670.71
2018-10-09T22:36:19.641Z,101676.29
2018-10-09T22:38:49.000Z,101674.15
2018-10-09T22:41:18.502Z,101672.86
2018-10-09T22:43:47.206Z,101682.75
2018-10-09T22:46:15.883Z,101688.77
2018-10-09T22:48:44.652Z,101680.59
2018-10-09T22:51:13.343Z,101682.33
2018-10-09T22:53:42.089Z,101676.70
2018-10-09T22:56:10.858Z,101686.18
2018-10-09T22:58:40.527Z,101683.61
2018-10-09T23:01:09.278Z,101687.05
2018-10-09T23:03:38.774Z,101687.05
2018-10-09T23:06:08.335Z,101684.45
2018-10-09T23:08:37.792Z,101681.02
2018-10-09T23:11:07.599Z,101683.16
2018-10-09T23:13:36.455Z,101681.87
2018-10-09T23:16:05.465Z,101680.58
2018-10-09T23:18:34.669Z,101682.29
2018-10-09T23:21:04.653Z,101683.14
2018-10-09T23:23:33.459Z,101684.01
2018-10-09T23:26:04.142Z,101683.14
2018-10-09T23:28:33.083Z,101684.87
2018-10-09T23:31:02.804Z,101677.99
2018-10-09T23:33:31.426Z,101683.59
2018-10-09T23:36:00.244Z,101684.89
2018-10-09T23:38:29.101Z,101682.72
2018-10-09T23:40:57.749Z,101679.27
2018-10-09T23:43:26.673Z,101683.56
2018-10-09T23:45:55.395Z,101682.29
2018-10-09T23:48:24.234Z,101684.87
2018-10-09T23:50:52.889Z,101681.83
2018-10-09T23:53:21.846Z,101683.98
2018-10-09T23:55:50.493Z,101683.56
2018-10-09T23:58:19.352Z,101682.71
